Archival Weather

Chicago O'Hare International

Chicago, Illinois (KORD)

Report from: Wednesday, December 28, 2022 4:51 PM CST
Current time: Friday, June 14, 2024 6:41 AM CDT

Current weather – Weather history – Daily summaries
Weather forecast

Temperature6.1°C (43.0°F)
Wind chill1.5°C (34.8°F)
Dew point-0.6°C (30.9°F)
Winds 16 kts (8.2 m/s, 18.4 mph) South (180°)
Wind gusts 27 kts (13.9 m/s, 31.1 mph)
Peak wind 28 kts (14.4 m/s, 32.2 mph) South (190°) at 22:08
Visibility10 mi. (16.1 km)
Clouds Scattered clouds 12,000 ft. (3,658 m)
Ceiling: Broken clouds 25,000 ft. (7,620 m)
Overcast 35,000 ft. (10,668 m)
Altimeter29.72 in.Hg (1006 mB)
Relative humidity62 %
Density altitude-767 ft. (-234 m)
Sea-level pressure100.7 kPa (1007 mB, 29.73 in.Hg)
Remarks Automated weather observing station with precipitation discriminator
Flight conditions Visual Meteorological Conditions
Raw dataKORD 282251Z 18016G27KT 10SM SCT120 BKN250 OVC350 06/M01 A2972 RMK AO2 PK WND 19028/2208 SLP069 T00611006
An error has occurred. This application may no longer respond until reloaded. Reload 🗙